sensor_id;sensor_type;location;lat;lon;timestamp;temperature;humidity
38606;DHT22;24365;48.446;8.850;2023-04-09T05:39:14;4.40;71.70
38606;DHT22;24365;48.446;8.850;2023-04-09T05:44:17;4.50;71.40
38606;DHT22;24365;48.446;8.850;2023-04-09T05:49:19;4.50;72.20
38606;DHT22;24365;48.446;8.850;2023-04-09T05:54:23;4.60;71.50
38606;DHT22;24365;48.446;8.850;2023-04-09T05:59:26;4.70;71.20
38606;DHT22;24365;48.446;8.850;2023-04-09T06:04:27;4.80;70.60
38606;DHT22;24365;48.446;8.850;2023-04-09T06:09:28;4.80;70.50
38606;DHT22;24365;48.446;8.850;2023-04-09T06:14:29;4.90;71.60
38606;DHT22;24365;48.446;8.850;2023-04-09T06:19:32;4.90;72.60
38606;DHT22;24365;48.446;8.850;2023-04-09T06:24:33;5.00;73.00
38606;DHT22;24365;48.446;8.850;2023-04-09T06:29:34;4.90;73.40
38606;DHT22;24365;48.446;8.850;2023-04-09T06:34:35;5.10;73.00
38606;DHT22;24365;48.446;8.850;2023-04-09T06:39:36;5.30;72.50
38606;DHT22;24365;48.446;8.850;2023-04-09T06:44:36;5.40;71.30
38606;DHT22;24365;48.446;8.850;2023-04-09T06:49:37;5.50;70.90
38606;DHT22;24365;48.446;8.850;2023-04-09T06:54:38;5.70;70.50
38606;DHT22;24365;48.446;8.850;2023-04-09T06:59:39;5.80;70.50
38606;DHT22;24365;48.446;8.850;2023-04-09T07:04:41;5.90;70.20
38606;DHT22;24365;48.446;8.850;2023-04-09T07:09:42;6.10;69.70
38606;DHT22;24365;48.446;8.850;2023-04-09T07:14:43;6.20;69.80
38606;DHT22;24365;48.446;8.850;2023-04-09T07:19:43;6.30;70.10
38606;DHT22;24365;48.446;8.850;2023-04-09T07:24:44;6.50;69.90
38606;DHT22;24365;48.446;8.850;2023-04-09T07:29:46;6.70;69.60
38606;DHT22;24365;48.446;8.850;2023-04-09T07:34:47;7.00;68.60
38606;DHT22;24365;48.446;8.850;2023-04-09T07:39:48;7.40;66.90
38606;DHT22;24365;48.446;8.850;2023-04-09T07:44:49;7.90;65.00
38606;DHT22;24365;48.446;8.850;2023-04-09T07:49:50;8.30;64.90
38606;DHT22;24365;48.446;8.850;2023-04-09T07:54:51;8.50;62.70
38606;DHT22;24365;48.446;8.850;2023-04-09T07:59:51;8.60;59.50
38606;DHT22;24365;48.446;8.850;2023-04-09T08:04:52;8.60;60.80
38606;DHT22;24365;48.446;8.850;2023-04-09T08:09:53;8.60;58.40
38606;DHT22;24365;48.446;8.850;2023-04-09T08:14:54;8.70;58.70
38606;DHT22;24365;48.446;8.850;2023-04-09T08:19:55;9.20;56.00
38606;DHT22;24365;48.446;8.850;2023-04-09T08:24:56;9.40;56.00
38606;DHT22;24365;48.446;8.850;2023-04-09T08:29:58;9.30;55.40
38606;DHT22;24365;48.446;8.850;2023-04-09T08:34:59;9.80;53.40
38606;DHT22;24365;48.446;8.850;2023-04-09T08:39:59;10.40;51.10
38606;DHT22;24365;48.446;8.850;2023-04-09T08:45:03;10.40;48.00
38606;DHT22;24365;48.446;8.850;2023-04-09T08:50:05;10.30;47.40
38606;DHT22;24365;48.446;8.850;2023-04-09T08:55:06;10.20;46.40
38606;DHT22;24365;48.446;8.850;2023-04-09T09:00:07;10.20;45.70
38606;DHT22;24365;48.446;8.850;2023-04-09T09:05:08;10.00;45.10
38606;DHT22;24365;48.446;8.850;2023-04-09T09:10:09;10.10;43.70
38606;DHT22;24365;48.446;8.850;2023-04-09T09:15:26;9.90;43.00
38606;DHT22;24365;48.446;8.850;2023-04-09T09:20:27;9.80;43.50
38606;DHT22;24365;48.446;8.850;2023-04-09T09:25:28;10.00;44.60
38606;DHT22;24365;48.446;8.850;2023-04-09T09:30:30;10.10;44.00
38606;DHT22;24365;48.446;8.850;2023-04-09T09:40:48;10.00;43.90
38606;DHT22;24365;48.446;8.850;2023-04-09T09:45:49;9.80;44.40
38606;DHT22;24365;48.446;8.850;2023-04-09T09:50:50;9.70;45.30
38606;DHT22;24365;48.446;8.850;2023-04-09T09:55:51;9.70;45.40
38606;DHT22;24365;48.446;8.850;2023-04-09T10:00:53;9.60;46.20
38606;DHT22;24365;48.446;8.850;2023-04-09T10:05:56;9.80;45.80
38606;DHT22;24365;48.446;8.850;2023-04-09T10:10:58;10.00;44.50
38606;DHT22;24365;48.446;8.850;2023-04-09T10:16:01;10.30;43.20
38606;DHT22;24365;48.446;8.850;2023-04-09T10:21:11;10.60;42.10
38606;DHT22;24365;48.446;8.850;2023-04-09T10:26:23;10.80;40.90
38606;DHT22;24365;48.446;8.850;2023-04-09T10:31:27;11.00;39.70
38606;DHT22;24365;48.446;8.850;2023-04-09T10:36:42;11.10;38.50
38606;DHT22;24365;48.446;8.850;2023-04-09T10:41:44;11.00;38.00
38606;DHT22;24365;48.446;8.850;2023-04-09T10:47:02;11.00;38.00
38606;DHT22;24365;48.446;8.850;2023-04-09T10:52:10;11.00;36.70
38606;DHT22;24365;48.446;8.850;2023-04-09T10:57:21;10.90;37.60
38606;DHT22;24365;48.446;8.850;2023-04-09T11:02:32;11.00;38.10
38606;DHT22;24365;48.446;8.850;2023-04-09T11:08:00;11.00;37.80
38606;DHT22;24365;48.446;8.850;2023-04-09T11:13:02;11.00;38.40
38606;DHT22;24365;48.446;8.850;2023-04-09T11:18:03;10.80;39.10
38606;DHT22;24365;48.446;8.850;2023-04-09T11:23:06;10.70;39.80
38606;DHT22;24365;48.446;8.850;2023-04-09T11:28:22;10.70;39.50
38606;DHT22;24365;48.446;8.850;2023-04-09T11:33:30;10.70;38.80
38606;DHT22;24365;48.446;8.850;2023-04-09T11:44:29;11.00;37.30
38606;DHT22;24365;48.446;8.850;2023-04-09T11:49:30;11.40;37.60
38606;DHT22;24365;48.446;8.850;2023-04-09T11:54:34;12.10;36.70
38606;DHT22;24365;48.446;8.850;2023-04-09T11:59:36;12.20;36.10
38606;DHT22;24365;48.446;8.850;2023-04-09T12:04:47;12.30;34.40
38606;DHT22;24365;48.446;8.850;2023-04-09T12:09:48;12.30;33.80
38606;DHT22;24365;48.446;8.850;2023-04-09T12:14:49;12.40;33.40
38606;DHT22;24365;48.446;8.850;2023-04-09T12:19:51;12.10;31.90
38606;DHT22;24365;48.446;8.850;2023-04-09T12:24:52;12.00;34.90
38606;DHT22;24365;48.446;8.850;2023-04-09T12:29:54;12.10;34.10
38606;DHT22;24365;48.446;8.850;2023-04-09T12:34:55;12.20;33.40
38606;DHT22;24365;48.446;8.850;2023-04-09T12:39:56;12.40;33.40
38606;DHT22;24365;48.446;8.850;2023-04-09T12:44:57;12.60;32.20
38606;DHT22;24365;48.446;8.850;2023-04-09T12:49:58;12.70;32.60
38606;DHT22;24365;48.446;8.850;2023-04-09T12:54:59;12.80;32.40
38606;DHT22;24365;48.446;8.850;2023-04-09T13:00:00;13.10;30.40
38606;DHT22;24365;48.446;8.850;2023-04-09T13:05:02;13.00;29.60
38606;DHT22;24365;48.446;8.850;2023-04-09T13:10:04;13.30;30.50
38606;DHT22;24365;48.446;8.850;2023-04-09T13:15:09;14.10;29.40
38606;DHT22;24365;48.446;8.850;2023-04-09T13:20:11;14.50;28.70
38606;DHT22;24365;48.446;8.850;2023-04-09T13:25:12;14.70;28.90
38606;DHT22;24365;48.446;8.850;2023-04-09T13:30:13;14.90;29.50
38606;DHT22;24365;48.446;8.850;2023-04-09T13:35:14;15.00;28.20
38606;DHT22;24365;48.446;8.850;2023-04-09T13:40:15;15.00;29.10
38606;DHT22;24365;48.446;8.850;2023-04-09T13:45:16;14.60;27.80
38606;DHT22;24365;48.446;8.850;2023-04-09T13:50:17;14.10;28.00
38606;DHT22;24365;48.446;8.850;2023-04-09T13:55:18;14.30;29.40
38606;DHT22;24365;48.446;8.850;2023-04-09T14:00:19;14.90;29.20
38606;DHT22;24365;48.446;8.850;2023-04-09T14:05:20;14.90;27.60
38606;DHT22;24365;48.446;8.850;2023-04-09T14:10:21;15.10;28.60
38606;DHT22;24365;48.446;8.850;2023-04-09T14:15:22;15.40;28.40
38606;DHT22;24365;48.446;8.850;2023-04-09T14:20:23;15.20;26.90
38606;DHT22;24365;48.446;8.850;2023-04-09T14:25:24;15.50;28.20
38606;DHT22;24365;48.446;8.850;2023-04-09T14:30:25;15.60;27.20
38606;DHT22;24365;48.446;8.850;2023-04-09T14:35:26;15.70;26.80
38606;DHT22;24365;48.446;8.850;2023-04-09T14:40:27;16.10;27.50
38606;DHT22;24365;48.446;8.850;2023-04-09T14:45:28;16.10;27.10
38606;DHT22;24365;48.446;8.850;2023-04-09T14:56:01;15.40;26.90
38606;DHT22;24365;48.446;8.850;2023-04-09T15:01:24;15.70;26.60
38606;DHT22;24365;48.446;8.850;2023-04-09T15:07:41;15.60;26.80
38606;DHT22;24365;48.446;8.850;2023-04-09T15:13:25;15.00;26.70
38606;DHT22;24365;48.446;8.850;2023-04-09T15:18:26;14.70;28.00
38606;DHT22;24365;48.446;8.850;2023-04-09T15:23:27;14.50;29.20
38606;DHT22;24365;48.446;8.850;2023-04-09T15:28:28;14.90;28.90
38606;DHT22;24365;48.446;8.850;2023-04-09T15:33:29;15.40;27.30
38606;DHT22;24365;48.446;8.850;2023-04-09T15:38:34;15.40;26.60
38606;DHT22;24365;48.446;8.850;2023-04-09T15:43:36;15.50;26.20
38606;DHT22;24365;48.446;8.850;2023-04-09T15:48:36;15.50;26.80
38606;DHT22;24365;48.446;8.850;2023-04-09T15:53:37;15.40;26.80
38606;DHT22;24365;48.446;8.850;2023-04-09T15:58:38;14.90;26.40
38606;DHT22;24365;48.446;8.850;2023-04-09T16:03:39;14.80;27.40
38606;DHT22;24365;48.446;8.850;2023-04-09T16:08:42;15.20;28.50
38606;DHT22;24365;48.446;8.850;2023-04-09T16:13:45;15.50;26.90
38606;DHT22;24365;48.446;8.850;2023-04-09T16:18:46;15.30;27.30
38606;DHT22;24365;48.446;8.850;2023-04-09T16:23:47;15.20;27.70
38606;DHT22;24365;48.446;8.850;2023-04-09T16:28:49;15.00;28.00
38606;DHT22;24365;48.446;8.850;2023-04-09T16:33:52;14.90;27.80
38606;DHT22;24365;48.446;8.850;2023-04-09T16:38:53;14.40;28.20
38606;DHT22;24365;48.446;8.850;2023-04-09T16:43:55;14.10;28.30
38606;DHT22;24365;48.446;8.850;2023-04-09T16:48:56;13.90;29.00
38606;DHT22;24365;48.446;8.850;2023-04-09T16:53:58;13.80;29.30
38606;DHT22;24365;48.446;8.850;2023-04-09T16:58:59;13.60;29.90
38606;DHT22;24365;48.446;8.850;2023-04-09T17:03:59;13.40;29.20
38606;DHT22;24365;48.446;8.850;2023-04-09T17:09:02;13.30;30.50
38606;DHT22;24365;48.446;8.850;2023-04-09T17:14:04;13.20;29.60
38606;DHT22;24365;48.446;8.850;2023-04-09T17:19:06;13.00;30.20
38606;DHT22;24365;48.446;8.850;2023-04-09T17:24:08;12.80;30.60
38606;DHT22;24365;48.446;8.850;2023-04-09T17:29:09;12.70;30.60
38606;DHT22;24365;48.446;8.850;2023-04-09T17:34:10;12.50;32.10
38606;DHT22;24365;48.446;8.850;2023-04-09T17:39:13;12.50;32.60
38606;DHT22;24365;48.446;8.850;2023-04-09T17:44:13;12.40;32.10
38606;DHT22;24365;48.446;8.850;2023-04-09T17:49:22;12.30;33.60
38606;DHT22;24365;48.446;8.850;2023-04-09T17:54:23;12.10;33.40
38606;DHT22;24365;48.446;8.850;2023-04-09T17:59:24;12.10;32.50
38606;DHT22;24365;48.446;8.850;2023-04-09T18:04:25;12.00;34.30
38606;DHT22;24365;48.446;8.850;2023-04-09T18:09:26;11.70;34.10
38606;DHT22;24365;48.446;8.850;2023-04-09T18:14:27;11.50;33.70
38606;DHT22;24365;48.446;8.850;2023-04-09T18:19:30;11.30;33.60
38606;DHT22;24365;48.446;8.850;2023-04-09T18:24:31;11.20;35.90
38606;DHT22;24365;48.446;8.850;2023-04-09T18:29:33;11.10;37.70
38606;DHT22;24365;48.446;8.850;2023-04-09T18:34:34;10.90;38.50
38606;DHT22;24365;48.446;8.850;2023-04-09T18:39:37;10.80;39.10
38606;DHT22;24365;48.446;8.850;2023-04-09T18:44:45;10.60;39.60
38606;DHT22;24365;48.446;8.850;2023-04-09T18:49:46;10.40;40.40
38606;DHT22;24365;48.446;8.850;2023-04-09T18:55:05;10.40;40.30
38606;DHT22;24365;48.446;8.850;2023-04-09T19:00:08;10.30;40.80
38606;DHT22;24365;48.446;8.850;2023-04-09T19:05:25;10.20;40.80
38606;DHT22;24365;48.446;8.850;2023-04-09T19:10:26;10.00;41.20
38606;DHT22;24365;48.446;8.850;2023-04-09T19:20:48;9.60;42.20
38606;DHT22;24365;48.446;8.850;2023-04-09T19:26:07;9.40;42.70
38606;DHT22;24365;48.446;8.850;2023-04-09T19:31:09;9.30;43.10
38606;DHT22;24365;48.446;8.850;2023-04-09T19:36:19;9.10;43.40
38606;DHT22;24365;48.446;8.850;2023-04-09T19:41:28;9.00;43.60
38606;DHT22;24365;48.446;8.850;2023-04-09T19:46:47;8.80;44.00
38606;DHT22;24365;48.446;8.850;2023-04-09T19:51:48;8.80;44.40
38606;DHT22;24365;48.446;8.850;2023-04-09T19:57:07;8.60;44.90
38606;DHT22;24365;48.446;8.850;2023-04-09T20:02:08;8.50;45.20
38606;DHT22;24365;48.446;8.850;2023-04-09T20:07:27;8.30;45.60
38606;DHT22;24365;48.446;8.850;2023-04-09T20:12:28;8.20;46.40
38606;DHT22;24365;48.446;8.850;2023-04-09T20:17:48;8.10;46.90
38606;DHT22;24365;48.446;8.850;2023-04-09T20:22:48;7.90;46.50
38606;DHT22;24365;48.446;8.850;2023-04-09T20:28:07;7.80;47.60
38606;DHT22;24365;48.446;8.850;2023-04-09T20:33:09;7.80;47.20
38606;DHT22;24365;48.446;8.850;2023-04-09T20:38:27;7.70;47.20
38606;DHT22;24365;48.446;8.850;2023-04-09T20:43:28;7.50;47.80
38606;DHT22;24365;48.446;8.850;2023-04-09T20:48:47;7.40;48.40
38606;DHT22;24365;48.446;8.850;2023-04-09T20:53:48;7.30;48.30
38606;DHT22;24365;48.446;8.850;2023-04-09T20:58:51;7.10;49.10
38606;DHT22;24365;48.446;8.850;2023-04-09T21:03:52;7.10;49.00
38606;DHT22;24365;48.446;8.850;2023-04-09T21:08:53;6.90;49.30
38606;DHT22;24365;48.446;8.850;2023-04-09T21:13:56;6.80;49.50
38606;DHT22;24365;48.446;8.850;2023-04-09T21:18:56;6.70;49.60
38606;DHT22;24365;48.446;8.850;2023-04-09T21:23:58;6.60;50.30
38606;DHT22;24365;48.446;8.850;2023-04-09T21:28:58;6.70;50.30
38606;DHT22;24365;48.446;8.850;2023-04-09T21:34:01;6.60;49.80
38606;DHT22;24365;48.446;8.850;2023-04-09T21:39:02;6.50;50.40
38606;DHT22;24365;48.446;8.850;2023-04-09T21:44:03;6.40;50.60
38606;DHT22;24365;48.446;8.850;2023-04-09T21:49:07;6.30;50.60
38606;DHT22;24365;48.446;8.850;2023-04-09T21:54:08;6.10;51.10
38606;DHT22;24365;48.446;8.850;2023-04-09T21:59:09;5.90;51.90
38606;DHT22;24365;48.446;8.850;2023-04-09T22:04:10;5.90;52.00
38606;DHT22;24365;48.446;8.850;2023-04-09T22:09:11;5.90;52.00
38606;DHT22;24365;48.446;8.850;2023-04-09T22:14:12;5.90;51.90
38606;DHT22;24365;48.446;8.850;2023-04-09T22:19:14;5.70;52.20
38606;DHT22;24365;48.446;8.850;2023-04-09T22:24:16;5.70;52.20
38606;DHT22;24365;48.446;8.850;2023-04-09T22:29:18;5.60;52.30
38606;DHT22;24365;48.446;8.850;2023-04-09T22:34:19;5.40;52.10
38606;DHT22;24365;48.446;8.850;2023-04-09T22:39:20;5.30;52.70
38606;DHT22;24365;48.446;8.850;2023-04-09T22:44:21;5.20;53.30
38606;DHT22;24365;48.446;8.850;2023-04-09T22:49:22;5.10;53.40
38606;DHT22;24365;48.446;8.850;2023-04-09T22:54:23;4.90;54.10
38606;DHT22;24365;48.446;8.850;2023-04-09T22:59:24;4.90;54.10
38606;DHT22;24365;48.446;8.850;2023-04-09T23:04:25;4.80;54.00
38606;DHT22;24365;48.446;8.850;2023-04-09T23:09:26;4.80;53.90
38606;DHT22;24365;48.446;8.850;2023-04-09T23:14:27;4.70;54.40
38606;DHT22;24365;48.446;8.850;2023-04-09T23:19:28;4.30;56.80
38606;DHT22;24365;48.446;8.850;2023-04-09T23:24:32;4.20;58.00
38606;DHT22;24365;48.446;8.850;2023-04-09T23:29:32;4.10;58.40
38606;DHT22;24365;48.446;8.850;2023-04-09T23:34:33;4.20;58.90
